sensor_id;sensor_type;location;lat;lon;timestamp;P1;durP1;ratioP1;P2;durP2;ratioP2
21878;SDS011;27908;42.708;23.278;2022-12-29T00:02:01;32.47;;;16.03;;
21878;SDS011;27908;42.708;23.278;2022-12-29T00:04:27;32.37;;;15.80;;
21878;SDS011;27908;42.708;23.278;2022-12-29T00:06:52;32.25;;;15.70;;
21878;SDS011;27908;42.708;23.278;2022-12-29T00:09:19;31.58;;;16.48;;
21878;SDS011;27908;42.708;23.278;2022-12-29T00:11:45;34.97;;;16.57;;
21878;SDS011;27908;42.708;23.278;2022-12-29T00:14:11;34.33;;;16.88;;
21878;SDS011;27908;42.708;23.278;2022-12-29T00:16:55;29.23;;;14.23;;
21878;SDS011;27908;42.708;23.278;2022-12-29T00:19:21;33.42;;;16.40;;
21878;SDS011;27908;42.708;23.278;2022-12-29T00:22:07;30.02;;;15.00;;
21878;SDS011;27908;42.708;23.278;2022-12-29T00:24:53;32.90;;;16.40;;
21878;SDS011;27908;42.708;23.278;2022-12-29T00:27:34;32.60;;;16.20;;
21878;SDS011;27908;42.708;23.278;2022-12-29T00:30:22;31.77;;;15.87;;
21878;SDS011;27908;42.708;23.278;2022-12-29T00:33:10;29.77;;;15.63;;
21878;SDS011;27908;42.708;23.278;2022-12-29T00:36:03;33.95;;;16.38;;
21878;SDS011;27908;42.708;23.278;2022-12-29T00:38:33;31.67;;;16.67;;
21878;SDS011;27908;42.708;23.278;2022-12-29T00:41:21;32.13;;;16.48;;
21878;SDS011;27908;42.708;23.278;2022-12-29T00:44:05;34.87;;;18.07;;
21878;SDS011;27908;42.708;23.278;2022-12-29T00:46:32;32.92;;;16.90;;
21878;SDS011;27908;42.708;23.278;2022-12-29T00:48:58;34.72;;;17.02;;
21878;SDS011;27908;42.708;23.278;2022-12-29T00:51:42;28.65;;;14.45;;
21878;SDS011;27908;42.708;23.278;2022-12-29T00:54:08;25.30;;;12.83;;
21878;SDS011;27908;42.708;23.278;2022-12-29T00:56:34;28.05;;;14.38;;
21878;SDS011;27908;42.708;23.278;2022-12-29T00:59:03;35.90;;;16.97;;
21878;SDS011;27908;42.708;23.278;2022-12-29T01:01:30;37.40;;;17.42;;
21878;SDS011;27908;42.708;23.278;2022-12-29T01:03:55;30.70;;;16.47;;
21878;SDS011;27908;42.708;23.278;2022-12-29T01:06:21;28.17;;;14.43;;
21878;SDS011;27908;42.708;23.278;2022-12-29T01:08:47;29.67;;;15.35;;
21878;SDS011;27908;42.708;23.278;2022-12-29T01:11:32;29.27;;;14.88;;
21878;SDS011;27908;42.708;23.278;2022-12-29T01:13:58;35.13;;;14.70;;
21878;SDS011;27908;42.708;23.278;2022-12-29T01:16:23;29.03;;;14.10;;
21878;SDS011;27908;42.708;23.278;2022-12-29T01:18:49;31.30;;;15.07;;
21878;SDS011;27908;42.708;23.278;2022-12-29T01:21:14;28.15;;;14.68;;
21878;SDS011;27908;42.708;23.278;2022-12-29T01:23:39;30.40;;;15.70;;
21878;SDS011;27908;42.708;23.278;2022-12-29T01:26:11;31.00;;;14.93;;
21878;SDS011;27908;42.708;23.278;2022-12-29T01:28:38;31.92;;;15.10;;
21878;SDS011;27908;42.708;23.278;2022-12-29T01:31:06;26.98;;;14.82;;
21878;SDS011;27908;42.708;23.278;2022-12-29T01:33:35;31.20;;;14.53;;
21878;SDS011;27908;42.708;23.278;2022-12-29T01:36:02;30.80;;;15.38;;
21878;SDS011;27908;42.708;23.278;2022-12-29T01:38:28;31.65;;;16.10;;
21878;SDS011;27908;42.708;23.278;2022-12-29T01:40:54;31.63;;;15.63;;
21878;SDS011;27908;42.708;23.278;2022-12-29T01:43:19;29.03;;;15.60;;
21878;SDS011;27908;42.708;23.278;2022-12-29T01:45:47;31.15;;;15.57;;
21878;SDS011;27908;42.708;23.278;2022-12-29T01:48:15;29.50;;;14.30;;
21878;SDS011;27908;42.708;23.278;2022-12-29T01:50:45;30.80;;;13.98;;
21878;SDS011;27908;42.708;23.278;2022-12-29T01:53:18;34.03;;;15.27;;
21878;SDS011;27908;42.708;23.278;2022-12-29T01:55:50;29.08;;;14.32;;
21878;SDS011;27908;42.708;23.278;2022-12-29T01:58:19;30.13;;;15.45;;
21878;SDS011;27908;42.708;23.278;2022-12-29T02:00:48;27.50;;;13.83;;
21878;SDS011;27908;42.708;23.278;2022-12-29T02:03:13;28.55;;;14.48;;
21878;SDS011;27908;42.708;23.278;2022-12-29T02:08:27;30.58;;;15.05;;
21878;SDS011;27908;42.708;23.278;2022-12-29T02:10:54;26.87;;;14.77;;
21878;SDS011;27908;42.708;23.278;2022-12-29T02:13:23;29.85;;;15.00;;
21878;SDS011;27908;42.708;23.278;2022-12-29T02:16:00;32.38;;;15.38;;
21878;SDS011;27908;42.708;23.278;2022-12-29T02:38:20;32.13;;;15.20;;
21878;SDS011;27908;42.708;23.278;2022-12-29T02:43:37;30.23;;;14.15;;
21878;SDS011;27908;42.708;23.278;2022-12-29T02:54:28;27.42;;;13.95;;
21878;SDS011;27908;42.708;23.278;2022-12-29T02:57:27;28.67;;;13.93;;
21878;SDS011;27908;42.708;23.278;2022-12-29T02:59:59;30.65;;;14.93;;
21878;SDS011;27908;42.708;23.278;2022-12-29T03:05:17;24.47;;;12.90;;
21878;SDS011;27908;42.708;23.278;2022-12-29T03:10:41;30.52;;;13.50;;
21878;SDS011;27908;42.708;23.278;2022-12-29T03:13:23;33.67;;;14.75;;
21878;SDS011;27908;42.708;23.278;2022-12-29T03:18:39;28.90;;;14.37;;
21878;SDS011;27908;42.708;23.278;2022-12-29T03:21:27;32.60;;;15.18;;
21878;SDS011;27908;42.708;23.278;2022-12-29T03:24:17;32.20;;;16.17;;
21878;SDS011;27908;42.708;23.278;2022-12-29T03:26:47;36.75;;;15.80;;
21878;SDS011;27908;42.708;23.278;2022-12-29T03:29:15;30.13;;;15.15;;
21878;SDS011;27908;42.708;23.278;2022-12-29T03:31:43;31.03;;;14.90;;
21878;SDS011;27908;42.708;23.278;2022-12-29T03:34:09;28.85;;;15.05;;
21878;SDS011;27908;42.708;23.278;2022-12-29T03:36:40;32.53;;;16.38;;
21878;SDS011;27908;42.708;23.278;2022-12-29T03:39:13;34.15;;;16.15;;
21878;SDS011;27908;42.708;23.278;2022-12-29T03:41:40;33.57;;;15.47;;
21878;SDS011;27908;42.708;23.278;2022-12-29T03:44:08;31.52;;;15.18;;
21878;SDS011;27908;42.708;23.278;2022-12-29T03:46:34;29.13;;;14.98;;
21878;SDS011;27908;42.708;23.278;2022-12-29T03:49:00;33.47;;;16.37;;
21878;SDS011;27908;42.708;23.278;2022-12-29T03:51:25;31.00;;;15.23;;
21878;SDS011;27908;42.708;23.278;2022-12-29T03:53:50;30.20;;;15.37;;
21878;SDS011;27908;42.708;23.278;2022-12-29T03:56:16;32.57;;;14.97;;
21878;SDS011;27908;42.708;23.278;2022-12-29T03:58:41;32.53;;;16.70;;
21878;SDS011;27908;42.708;23.278;2022-12-29T04:01:07;33.83;;;16.80;;
21878;SDS011;27908;42.708;23.278;2022-12-29T04:03:32;28.65;;;14.18;;
21878;SDS011;27908;42.708;23.278;2022-12-29T04:05:58;35.17;;;15.90;;
21878;SDS011;27908;42.708;23.278;2022-12-29T04:08:23;24.20;;;12.47;;
21878;SDS011;27908;42.708;23.278;2022-12-29T04:10:49;29.87;;;15.27;;
21878;SDS011;27908;42.708;23.278;2022-12-29T04:13:15;32.63;;;14.80;;
21878;SDS011;27908;42.708;23.278;2022-12-29T04:15:40;36.00;;;17.03;;
21878;SDS011;27908;42.708;23.278;2022-12-29T04:18:07;36.40;;;17.63;;
21878;SDS011;27908;42.708;23.278;2022-12-29T04:20:32;38.10;;;17.03;;
21878;SDS011;27908;42.708;23.278;2022-12-29T04:23:16;35.63;;;17.08;;
21878;SDS011;27908;42.708;23.278;2022-12-29T04:25:44;33.83;;;17.00;;
21878;SDS011;27908;42.708;23.278;2022-12-29T04:28:12;34.63;;;16.98;;
21878;SDS011;27908;42.708;23.278;2022-12-29T04:30:37;35.63;;;16.63;;
21878;SDS011;27908;42.708;23.278;2022-12-29T04:33:02;36.63;;;17.33;;
21878;SDS011;27908;42.708;23.278;2022-12-29T04:35:28;35.63;;;17.37;;
21878;SDS011;27908;42.708;23.278;2022-12-29T04:37:53;35.30;;;17.47;;
21878;SDS011;27908;42.708;23.278;2022-12-29T04:40:19;33.97;;;16.43;;
21878;SDS011;27908;42.708;23.278;2022-12-29T04:42:44;38.50;;;16.10;;
21878;SDS011;27908;42.708;23.278;2022-12-29T04:45:10;36.20;;;17.60;;
21878;SDS011;27908;42.708;23.278;2022-12-29T04:47:35;36.97;;;16.73;;
21878;SDS011;27908;42.708;23.278;2022-12-29T04:50:01;37.73;;;17.13;;
21878;SDS011;27908;42.708;23.278;2022-12-29T04:52:26;37.37;;;17.70;;
21878;SDS011;27908;42.708;23.278;2022-12-29T04:54:52;35.97;;;16.33;;
21878;SDS011;27908;42.708;23.278;2022-12-29T04:57:17;32.57;;;17.40;;
21878;SDS011;27908;42.708;23.278;2022-12-29T04:59:42;35.57;;;16.57;;
21878;SDS011;27908;42.708;23.278;2022-12-29T05:02:08;34.45;;;16.92;;
21878;SDS011;27908;42.708;23.278;2022-12-29T05:04:33;38.80;;;17.97;;
21878;SDS011;27908;42.708;23.278;2022-12-29T05:06:58;39.67;;;17.43;;
21878;SDS011;27908;42.708;23.278;2022-12-29T05:09:24;35.73;;;17.37;;
21878;SDS011;27908;42.708;23.278;2022-12-29T05:11:49;36.13;;;17.47;;
21878;SDS011;27908;42.708;23.278;2022-12-29T05:14:15;34.50;;;16.52;;
21878;SDS011;27908;42.708;23.278;2022-12-29T05:16:40;32.87;;;16.67;;
21878;SDS011;27908;42.708;23.278;2022-12-29T05:19:05;37.30;;;17.80;;
21878;SDS011;27908;42.708;23.278;2022-12-29T05:21:31;37.73;;;17.73;;
21878;SDS011;27908;42.708;23.278;2022-12-29T05:23:56;36.67;;;18.43;;
21878;SDS011;27908;42.708;23.278;2022-12-29T05:26:22;35.73;;;18.27;;
21878;SDS011;27908;42.708;23.278;2022-12-29T05:28:47;38.20;;;18.60;;
21878;SDS011;27908;42.708;23.278;2022-12-29T05:31:12;39.13;;;18.50;;
21878;SDS011;27908;42.708;23.278;2022-12-29T05:33:38;38.13;;;18.03;;
21878;SDS011;27908;42.708;23.278;2022-12-29T05:36:07;38.53;;;17.90;;
21878;SDS011;27908;42.708;23.278;2022-12-29T05:38:34;34.20;;;17.73;;
21878;SDS011;27908;42.708;23.278;2022-12-29T05:40:59;34.63;;;18.10;;
21878;SDS011;27908;42.708;23.278;2022-12-29T05:43:25;40.30;;;20.17;;
21878;SDS011;27908;42.708;23.278;2022-12-29T05:45:50;36.97;;;17.33;;
21878;SDS011;27908;42.708;23.278;2022-12-29T05:48:16;39.47;;;19.15;;
21878;SDS011;27908;42.708;23.278;2022-12-29T05:50:42;35.93;;;18.07;;
21878;SDS011;27908;42.708;23.278;2022-12-29T05:53:07;37.93;;;18.53;;
21878;SDS011;27908;42.708;23.278;2022-12-29T05:55:33;37.60;;;19.10;;
21878;SDS011;27908;42.708;23.278;2022-12-29T05:57:59;38.58;;;19.05;;
21878;SDS011;27908;42.708;23.278;2022-12-29T06:00:24;40.13;;;19.80;;
21878;SDS011;27908;42.708;23.278;2022-12-29T06:02:50;41.30;;;19.17;;
21878;SDS011;27908;42.708;23.278;2022-12-29T06:05:15;43.67;;;20.10;;
21878;SDS011;27908;42.708;23.278;2022-12-29T06:07:41;38.77;;;19.33;;
21878;SDS011;27908;42.708;23.278;2022-12-29T06:10:07;41.37;;;19.63;;
21878;SDS011;27908;42.708;23.278;2022-12-29T06:12:32;39.85;;;20.63;;
21878;SDS011;27908;42.708;23.278;2022-12-29T06:14:58;46.03;;;22.37;;
21878;SDS011;27908;42.708;23.278;2022-12-29T06:17:23;44.87;;;22.43;;
21878;SDS011;27908;42.708;23.278;2022-12-29T06:19:49;48.85;;;21.48;;
21878;SDS011;27908;42.708;23.278;2022-12-29T06:22:14;46.27;;;22.23;;
21878;SDS011;27908;42.708;23.278;2022-12-29T06:24:39;48.97;;;23.73;;
21878;SDS011;27908;42.708;23.278;2022-12-29T06:27:05;47.07;;;21.40;;
21878;SDS011;27908;42.708;23.278;2022-12-29T06:29:30;43.80;;;21.70;;
21878;SDS011;27908;42.708;23.278;2022-12-29T06:31:56;41.87;;;21.20;;
21878;SDS011;27908;42.708;23.278;2022-12-29T06:34:23;46.28;;;22.75;;
21878;SDS011;27908;42.708;23.278;2022-12-29T06:36:49;41.75;;;20.70;;
21878;SDS011;27908;42.708;23.278;2022-12-29T06:39:14;40.43;;;21.77;;
21878;SDS011;27908;42.708;23.278;2022-12-29T06:41:40;42.17;;;20.87;;
21878;SDS011;27908;42.708;23.278;2022-12-29T06:44:05;43.07;;;23.13;;
21878;SDS011;27908;42.708;23.278;2022-12-29T06:46:30;46.07;;;22.97;;
21878;SDS011;27908;42.708;23.278;2022-12-29T06:48:56;43.63;;;21.53;;
21878;SDS011;27908;42.708;23.278;2022-12-29T06:51:21;41.53;;;21.80;;
21878;SDS011;27908;42.708;23.278;2022-12-29T06:53:47;40.03;;;21.63;;
21878;SDS011;27908;42.708;23.278;2022-12-29T06:56:12;45.42;;;22.02;;
21878;SDS011;27908;42.708;23.278;2022-12-29T06:58:38;41.67;;;21.80;;
21878;SDS011;27908;42.708;23.278;2022-12-29T07:01:03;43.90;;;21.33;;
21878;SDS011;27908;42.708;23.278;2022-12-29T07:03:29;45.67;;;21.67;;
21878;SDS011;27908;42.708;23.278;2022-12-29T07:05:54;44.93;;;22.43;;
21878;SDS011;27908;42.708;23.278;2022-12-29T07:08:20;46.10;;;21.20;;
21878;SDS011;27908;42.708;23.278;2022-12-29T07:10:45;44.73;;;20.73;;
21878;SDS011;27908;42.708;23.278;2022-12-29T07:13:11;41.83;;;20.30;;
21878;SDS011;27908;42.708;23.278;2022-12-29T07:15:37;39.42;;;20.45;;
21878;SDS011;27908;42.708;23.278;2022-12-29T07:18:03;43.97;;;20.93;;
21878;SDS011;27908;42.708;23.278;2022-12-29T07:20:29;45.58;;;22.58;;
21878;SDS011;27908;42.708;23.278;2022-12-29T07:22:54;45.10;;;20.35;;
21878;SDS011;27908;42.708;23.278;2022-12-29T07:25:20;35.83;;;18.53;;
21878;SDS011;27908;42.708;23.278;2022-12-29T07:27:46;39.80;;;18.70;;
21878;SDS011;27908;42.708;23.278;2022-12-29T07:30:11;35.10;;;18.20;;
21878;SDS011;27908;42.708;23.278;2022-12-29T07:32:37;35.97;;;17.33;;
21878;SDS011;27908;42.708;23.278;2022-12-29T07:35:02;39.45;;;19.92;;
21878;SDS011;27908;42.708;23.278;2022-12-29T07:37:28;40.43;;;20.37;;
21878;SDS011;27908;42.708;23.278;2022-12-29T07:39:54;38.33;;;19.58;;
21878;SDS011;27908;42.708;23.278;2022-12-29T07:42:19;35.07;;;18.33;;
21878;SDS011;27908;42.708;23.278;2022-12-29T07:44:44;40.27;;;20.00;;
21878;SDS011;27908;42.708;23.278;2022-12-29T07:47:10;41.10;;;21.23;;
21878;SDS011;27908;42.708;23.278;2022-12-29T07:49:35;41.85;;;20.52;;
21878;SDS011;27908;42.708;23.278;2022-12-29T07:52:01;43.23;;;20.37;;
21878;SDS011;27908;42.708;23.278;2022-12-29T07:54:26;42.77;;;19.73;;
21878;SDS011;27908;42.708;23.278;2022-12-29T07:56:52;38.73;;;19.50;;
21878;SDS011;27908;42.708;23.278;2022-12-29T07:59:17;34.40;;;18.85;;
21878;SDS011;27908;42.708;23.278;2022-12-29T08:01:43;42.20;;;21.53;;
21878;SDS011;27908;42.708;23.278;2022-12-29T08:04:08;38.63;;;18.60;;
21878;SDS011;27908;42.708;23.278;2022-12-29T08:06:34;35.67;;;18.30;;
21878;SDS011;27908;42.708;23.278;2022-12-29T08:08:59;36.13;;;18.23;;
21878;SDS011;27908;42.708;23.278;2022-12-29T08:11:25;36.28;;;18.10;;
21878;SDS011;27908;42.708;23.278;2022-12-29T08:13:51;39.73;;;17.73;;
21878;SDS011;27908;42.708;23.278;2022-12-29T08:16:17;40.20;;;20.03;;
21878;SDS011;27908;42.708;23.278;2022-12-29T08:18:42;36.10;;;17.27;;
21878;SDS011;27908;42.708;23.278;2022-12-29T08:21:07;36.93;;;18.93;;
21878;SDS011;27908;42.708;23.278;2022-12-29T08:23:33;34.10;;;14.93;;
21878;SDS011;27908;42.708;23.278;2022-12-29T08:25:59;30.70;;;15.33;;
21878;SDS011;27908;42.708;23.278;2022-12-29T08:28:25;36.15;;;17.08;;
21878;SDS011;27908;42.708;23.278;2022-12-29T08:30:51;30.67;;;15.07;;
21878;SDS011;27908;42.708;23.278;2022-12-29T08:33:16;32.27;;;15.77;;
21878;SDS011;27908;42.708;23.278;2022-12-29T08:35:42;32.37;;;16.83;;
21878;SDS011;27908;42.708;23.278;2022-12-29T08:38:07;28.90;;;14.43;;
21878;SDS011;27908;42.708;23.278;2022-12-29T08:40:33;36.70;;;17.40;;
21878;SDS011;27908;42.708;23.278;2022-12-29T08:42:58;34.77;;;15.77;;
21878;SDS011;27908;42.708;23.278;2022-12-29T08:45:23;35.47;;;17.70;;
21878;SDS011;27908;42.708;23.278;2022-12-29T08:47:49;34.23;;;17.37;;
21878;SDS011;27908;42.708;23.278;2022-12-29T08:50:14;34.27;;;17.00;;
21878;SDS011;27908;42.708;23.278;2022-12-29T08:52:40;32.72;;;17.75;;
21878;SDS011;27908;42.708;23.278;2022-12-29T08:55:05;37.17;;;17.50;;
21878;SDS011;27908;42.708;23.278;2022-12-29T08:57:31;35.15;;;18.10;;
21878;SDS011;27908;42.708;23.278;2022-12-29T08:59:56;31.00;;;16.47;;
21878;SDS011;27908;42.708;23.278;2022-12-29T09:02:22;31.20;;;17.60;;
21878;SDS011;27908;42.708;23.278;2022-12-29T09:04:47;30.77;;;15.40;;
21878;SDS011;27908;42.708;23.278;2022-12-29T09:07:13;32.97;;;16.67;;
21878;SDS011;27908;42.708;23.278;2022-12-29T09:09:38;32.70;;;17.10;;
21878;SDS011;27908;42.708;23.278;2022-12-29T09:12:03;31.10;;;17.53;;
21878;SDS011;27908;42.708;23.278;2022-12-29T09:14:29;34.73;;;16.63;;
21878;SDS011;27908;42.708;23.278;2022-12-29T09:16:54;29.77;;;16.03;;
21878;SDS011;27908;42.708;23.278;2022-12-29T09:19:38;31.52;;;15.40;;
21878;SDS011;27908;42.708;23.278;2022-12-29T09:22:03;34.53;;;18.37;;
21878;SDS011;27908;42.708;23.278;2022-12-29T09:24:29;35.15;;;18.30;;
21878;SDS011;27908;42.708;23.278;2022-12-29T09:26:54;36.53;;;17.13;;
21878;SDS011;27908;42.708;23.278;2022-12-29T09:29:20;34.20;;;17.60;;
21878;SDS011;27908;42.708;23.278;2022-12-29T09:31:45;40.10;;;17.73;;
21878;SDS011;27908;42.708;23.278;2022-12-29T09:34:10;34.38;;;16.80;;
21878;SDS011;27908;42.708;23.278;2022-12-29T09:36:36;30.73;;;15.83;;
21878;SDS011;27908;42.708;23.278;2022-12-29T09:39:01;33.47;;;16.87;;
21878;SDS011;27908;42.708;23.278;2022-12-29T09:41:30;29.17;;;16.40;;
21878;SDS011;27908;42.708;23.278;2022-12-29T09:44:43;34.53;;;17.90;;
21878;SDS011;27908;42.708;23.278;2022-12-29T09:47:12;33.00;;;16.35;;
21878;SDS011;27908;42.708;23.278;2022-12-29T09:49:43;32.28;;;17.92;;
21878;SDS011;27908;42.708;23.278;2022-12-29T09:52:15;32.80;;;18.35;;
21878;SDS011;27908;42.708;23.278;2022-12-29T09:54:48;33.80;;;17.77;;
21878;SDS011;27908;42.708;23.278;2022-12-29T09:57:25;37.42;;;16.38;;
21878;SDS011;27908;42.708;23.278;2022-12-29T10:00:05;36.60;;;17.65;;
21878;SDS011;27908;42.708;23.278;2022-12-29T10:02:42;43.75;;;21.15;;
21878;SDS011;27908;42.708;23.278;2022-12-29T10:10:56;32.55;;;16.42;;
21878;SDS011;27908;42.708;23.278;2022-12-29T10:16:13;35.38;;;18.05;;
21878;SDS011;27908;42.708;23.278;2022-12-29T10:18:48;35.08;;;17.85;;
21878;SDS011;27908;42.708;23.278;2022-12-29T10:23:58;38.58;;;17.98;;
21878;SDS011;27908;42.708;23.278;2022-12-29T10:26:27;37.10;;;17.15;;
21878;SDS011;27908;42.708;23.278;2022-12-29T10:28:57;40.90;;;18.80;;
21878;SDS011;27908;42.708;23.278;2022-12-29T10:31:32;32.13;;;17.10;;
21878;SDS011;27908;42.708;23.278;2022-12-29T10:34:03;31.47;;;16.13;;
21878;SDS011;27908;42.708;23.278;2022-12-29T10:36:42;31.02;;;16.98;;
21878;SDS011;27908;42.708;23.278;2022-12-29T10:39:14;35.63;;;16.55;;
21878;SDS011;27908;42.708;23.278;2022-12-29T10:41:51;34.08;;;17.30;;
21878;SDS011;27908;42.708;23.278;2022-12-29T10:44:23;36.60;;;17.58;;
21878;SDS011;27908;42.708;23.278;2022-12-29T10:46:58;33.43;;;16.87;;
21878;SDS011;27908;42.708;23.278;2022-12-29T10:49:27;34.22;;;16.58;;
21878;SDS011;27908;42.708;23.278;2022-12-29T10:51:56;34.15;;;16.35;;
21878;SDS011;27908;42.708;23.278;2022-12-29T10:54:27;30.13;;;15.18;;
21878;SDS011;27908;42.708;23.278;2022-12-29T10:59:56;28.53;;;15.70;;
21878;SDS011;27908;42.708;23.278;2022-12-29T11:02:31;32.42;;;15.05;;
21878;SDS011;27908;42.708;23.278;2022-12-29T11:08:04;26.95;;;14.82;;
21878;SDS011;27908;42.708;23.278;2022-12-29T11:10:37;29.08;;;14.77;;
21878;SDS011;27908;42.708;23.278;2022-12-29T11:13:15;31.20;;;14.27;;
21878;SDS011;27908;42.708;23.278;2022-12-29T11:15:44;32.78;;;15.32;;
21878;SDS011;27908;42.708;23.278;2022-12-29T11:18:21;50.60;;;25.67;;
21878;SDS011;27908;42.708;23.278;2022-12-29T11:20:49;37.78;;;19.70;;
21878;SDS011;27908;42.708;23.278;2022-12-29T11:23:22;32.55;;;17.15;;
21878;SDS011;27908;42.708;23.278;2022-12-29T11:26:07;43.83;;;22.40;;
21878;SDS011;27908;42.708;23.278;2022-12-29T11:28:32;45.88;;;23.65;;
21878;SDS011;27908;42.708;23.278;2022-12-29T11:31:02;36.28;;;18.75;;
21878;SDS011;27908;42.708;23.278;2022-12-29T11:33:29;47.97;;;25.50;;
21878;SDS011;27908;42.708;23.278;2022-12-29T11:35:59;34.63;;;17.95;;
21878;SDS011;27908;42.708;23.278;2022-12-29T11:38:50;29.38;;;15.82;;
21878;SDS011;27908;42.708;23.278;2022-12-29T11:41:26;43.03;;;20.83;;
21878;SDS011;27908;42.708;23.278;2022-12-29T11:43:54;41.13;;;18.35;;
21878;SDS011;27908;42.708;23.278;2022-12-29T11:46:24;34.83;;;17.27;;
21878;SDS011;27908;42.708;23.278;2022-12-29T11:48:53;29.80;;;15.30;;
21878;SDS011;27908;42.708;23.278;2022-12-29T11:51:23;33.05;;;14.35;;
21878;SDS011;27908;42.708;23.278;2022-12-29T11:53:53;32.35;;;16.55;;
21878;SDS011;27908;42.708;23.278;2022-12-29T11:56:39;32.40;;;16.33;;
21878;SDS011;27908;42.708;23.278;2022-12-29T12:01:51;41.95;;;20.42;;
21878;SDS011;27908;42.708;23.278;2022-12-29T12:04:18;32.35;;;15.60;;
21878;SDS011;27908;42.708;23.278;2022-12-29T12:09:51;31.58;;;16.40;;
21878;SDS011;27908;42.708;23.278;2022-12-29T12:12:37;30.83;;;16.00;;
21878;SDS011;27908;42.708;23.278;2022-12-29T12:15:08;31.83;;;14.90;;
21878;SDS011;27908;42.708;23.278;2022-12-29T12:17:52;34.35;;;16.73;;
21878;SDS011;27908;42.708;23.278;2022-12-29T12:20:28;33.63;;;16.00;;
21878;SDS011;27908;42.708;23.278;2022-12-29T12:25:50;29.77;;;15.13;;
21878;SDS011;27908;42.708;23.278;2022-12-29T12:28:20;32.88;;;15.00;;
21878;SDS011;27908;42.708;23.278;2022-12-29T12:30:52;29.55;;;15.02;;
21878;SDS011;27908;42.708;23.278;2022-12-29T12:44:11;37.45;;;18.27;;
21878;SDS011;27908;42.708;23.278;2022-12-29T12:50:02;39.95;;;18.73;;
21878;SDS011;27908;42.708;23.278;2022-12-29T13:01:38;41.30;;;17.77;;
21878;SDS011;27908;42.708;23.278;2022-12-29T13:04:26;35.13;;;15.55;;
21878;SDS011;27908;42.708;23.278;2022-12-29T13:17:32;32.90;;;16.80;;
21878;SDS011;27908;42.708;23.278;2022-12-29T13:25:19;36.42;;;17.88;;
21878;SDS011;27908;42.708;23.278;2022-12-29T13:28:15;33.47;;;16.92;;
21878;SDS011;27908;42.708;23.278;2022-12-29T13:30:54;29.55;;;15.23;;
21878;SDS011;27908;42.708;23.278;2022-12-29T13:41:37;33.63;;;15.80;;
21878;SDS011;27908;42.708;23.278;2022-12-29T13:44:05;31.50;;;15.27;;
21878;SDS011;27908;42.708;23.278;2022-12-29T13:46:42;32.65;;;16.70;;
21878;SDS011;27908;42.708;23.278;2022-12-29T13:49:18;34.03;;;16.20;;
21878;SDS011;27908;42.708;23.278;2022-12-29T13:51:52;35.63;;;16.35;;
21878;SDS011;27908;42.708;23.278;2022-12-29T13:57:05;30.77;;;15.45;;
21878;SDS011;27908;42.708;23.278;2022-12-29T14:07:57;37.97;;;17.77;;
21878;SDS011;27908;42.708;23.278;2022-12-29T14:10:27;37.00;;;17.05;;
21878;SDS011;27908;42.708;23.278;2022-12-29T14:13:10;38.90;;;17.10;;
21878;SDS011;27908;42.708;23.278;2022-12-29T14:15:55;37.33;;;20.60;;
21878;SDS011;27908;42.708;23.278;2022-12-29T14:18:27;38.55;;;19.33;;
21878;SDS011;27908;42.708;23.278;2022-12-29T14:21:08;39.25;;;18.45;;
21878;SDS011;27908;42.708;23.278;2022-12-29T14:23:44;39.33;;;19.77;;
21878;SDS011;27908;42.708;23.278;2022-12-29T14:33:40;37.92;;;18.55;;
21878;SDS011;27908;42.708;23.278;2022-12-29T14:38:59;36.05;;;17.02;;
21878;SDS011;27908;42.708;23.278;2022-12-29T14:44:10;38.35;;;16.77;;
21878;SDS011;27908;42.708;23.278;2022-12-29T14:46:56;35.72;;;17.00;;
21878;SDS011;27908;42.708;23.278;2022-12-29T14:49:26;35.90;;;16.83;;
21878;SDS011;27908;42.708;23.278;2022-12-29T14:51:53;35.50;;;17.53;;
21878;SDS011;27908;42.708;23.278;2022-12-29T14:57:04;35.83;;;18.25;;
21878;SDS011;27908;42.708;23.278;2022-12-29T14:59:31;48.13;;;20.20;;
21878;SDS011;27908;42.708;23.278;2022-12-29T15:01:59;39.17;;;20.50;;
21878;SDS011;27908;42.708;23.278;2022-12-29T15:04:31;43.57;;;23.33;;
21878;SDS011;27908;42.708;23.278;2022-12-29T15:06:58;60.22;;;27.65;;
21878;SDS011;27908;42.708;23.278;2022-12-29T15:09:30;55.92;;;29.92;;
21878;SDS011;27908;42.708;23.278;2022-12-29T15:14:59;66.63;;;33.53;;
21878;SDS011;27908;42.708;23.278;2022-12-29T15:19:56;99.97;;;47.17;;
21878;SDS011;27908;42.708;23.278;2022-12-29T15:22:22;91.72;;;46.80;;
21878;SDS011;27908;42.708;23.278;2022-12-29T15:24:49;117.25;;;58.30;;
21878;SDS011;27908;42.708;23.278;2022-12-29T15:27:19;710.95;;;236.52;;
21878;SDS011;27908;42.708;23.278;2022-12-29T15:29:47;249.87;;;100.37;;
21878;SDS011;27908;42.708;23.278;2022-12-29T15:34:44;184.60;;;85.93;;
21878;SDS011;27908;42.708;23.278;2022-12-29T15:37:17;187.23;;;91.47;;
21878;SDS011;27908;42.708;23.278;2022-12-29T15:39:51;203.77;;;94.37;;
21878;SDS011;27908;42.708;23.278;2022-12-29T15:42:27;188.70;;;89.65;;
21878;SDS011;27908;42.708;23.278;2022-12-29T15:44:54;155.35;;;74.13;;
21878;SDS011;27908;42.708;23.278;2022-12-29T15:47:21;123.53;;;56.20;;
21878;SDS011;27908;42.708;23.278;2022-12-29T15:49:49;132.52;;;59.05;;
21878;SDS011;27908;42.708;23.278;2022-12-29T15:52:19;127.63;;;58.20;;
21878;SDS011;27908;42.708;23.278;2022-12-29T15:54:46;102.22;;;48.03;;
21878;SDS011;27908;42.708;23.278;2022-12-29T15:59:54;109.35;;;48.33;;
21878;SDS011;27908;42.708;23.278;2022-12-29T16:02:23;111.53;;;47.97;;
21878;SDS011;27908;42.708;23.278;2022-12-29T16:04:49;112.27;;;47.20;;
21878;SDS011;27908;42.708;23.278;2022-12-29T16:07:23;117.40;;;54.45;;
21878;SDS011;27908;42.708;23.278;2022-12-29T16:09:53;114.90;;;49.25;;
21878;SDS011;27908;42.708;23.278;2022-12-29T16:12:21;104.30;;;47.88;;
21878;SDS011;27908;42.708;23.278;2022-12-29T16:17:29;119.33;;;54.07;;
21878;SDS011;27908;42.708;23.278;2022-12-29T16:22:36;191.70;;;90.93;;
21878;SDS011;27908;42.708;23.278;2022-12-29T16:27:54;201.98;;;97.13;;
21878;SDS011;27908;42.708;23.278;2022-12-29T16:30:23;272.90;;;131.97;;
21878;SDS011;27908;42.708;23.278;2022-12-29T16:32:52;239.88;;;117.90;;
21878;SDS011;27908;42.708;23.278;2022-12-29T16:35:29;216.95;;;102.82;;
21878;SDS011;27908;42.708;23.278;2022-12-29T16:43:22;251.48;;;123.60;;
21878;SDS011;27908;42.708;23.278;2022-12-29T16:46:27;232.40;;;114.97;;
21878;SDS011;27908;42.708;23.278;2022-12-29T16:48:55;138.90;;;65.30;;
21878;SDS011;27908;42.708;23.278;2022-12-29T16:51:31;206.50;;;98.18;;
21878;SDS011;27908;42.708;23.278;2022-12-29T16:53:59;197.17;;;95.13;;
21878;SDS011;27908;42.708;23.278;2022-12-29T16:56:27;168.52;;;76.65;;
21878;SDS011;27908;42.708;23.278;2022-12-29T17:01:29;116.53;;;49.47;;
21878;SDS011;27908;42.708;23.278;2022-12-29T17:04:00;130.13;;;63.58;;
21878;SDS011;27908;42.708;23.278;2022-12-29T17:06:29;118.83;;;54.53;;
21878;SDS011;27908;42.708;23.278;2022-12-29T17:08:55;102.85;;;47.80;;
21878;SDS011;27908;42.708;23.278;2022-12-29T17:14:09;131.13;;;62.05;;